• Join FlightAware (Why Join?)
  • Login
  • US Flag 
12:42AM EDT


 

Airport Tracker/Info


-or-


 

Live Flight TrackerFlight Track Log ✈ N953AN ✈ 20-May-2012 ✈ KMIA - MGGT / GUA

Flight Track Log - Related Links

Times and Time Zones

All times are in EDT time to prevent confusion due to time zone crossing. See the N953AN flight status page for this flight to view local times or setup timezone preferences in your user account.

Time Position Orientation Groundspeed Altitude Reporting Facility
EDT Latitude Longitude Course Direction KTS MPH feet Rate Location/Type
01:16PM 25.7730 -80.2317 319° Northwest  Level FlightAware Approximate
01:17PM 25.8006 -80.2583 179° South 173 199 1,100  Level Miami Center
01:22PM 25.5250 -80.2506 214° Southwest 295 339 11,900 2,280 Climbing Miami Center
01:23PM 25.4506 -80.3061 212° Southwest 307 353 14,900 2,400 Climbing Miami Center
01:24PM 25.3719 -80.3614 210° Southwest 326 375 16,700 1,920 Climbing Miami Center
01:25PM 25.2831 -80.4186 208° Southwest 351 404 18,800 2,100 Climbing Miami Center
01:26PM 25.1856 -80.4753 211° Southwest 380 437 20,900 2,040 Climbing Miami Center
01:27PM 25.0942 -80.5369 210° Southwest 392 451 22,900 1,920 Climbing Miami Center
01:28PM 24.9964 -80.5981 211° Southwest 397 457 24,800 1,800 Climbing Miami Center
01:29PM 24.8989 -80.6617 208° Southwest 408 470 26,600 1,620 Climbing Miami Center
01:30PM 24.7969 -80.7225 211° Southwest 413 475 28,100 1,500 Climbing Miami Center
01:31PM 24.6969 -80.7881 209° Southwest 413 475 29,600 1,260 Climbing Miami Center
01:32PM 24.5931 -80.8508 210° Southwest 419 482 30,700 1,260 Climbing Miami Center
01:33PM 24.4911 -80.9161 210° Southwest 424 488 32,200 1,380 Climbing Miami Center
01:34PM 24.3911 -80.9789 209° Southwest 424 488 33,500 1,140 Climbing Miami Center
01:35PM 24.2892 -81.0417 210° Southwest 424 488 34,500 720 Climbing Miami Center
01:36PM 24.1869 -81.1067 208° Southwest 424 488 35,000 240 Climbing Miami Center
01:37PM 24.0831 -81.1667 214° Southwest 424 488 35,000  Level Miami Center
01:44PM 23.4081 -81.6624 217° Southwest  Level FlightAware Approximate
01:45PM 23.3159 -81.7368 217° Southwest  Level FlightAware Approximate
01:46PM 23.2237 -81.8111 216° Southwest  Level FlightAware Approximate
01:47PM 23.1314 -81.8853 216° Southwest  Level FlightAware Approximate
01:48PM 23.0391 -81.9594 216° Southwest  Level FlightAware Approximate
01:49PM 22.9468 -82.0334 216° Southwest  Level FlightAware Approximate
01:50PM 22.8544 -82.1073 216° Southwest  Level FlightAware Approximate
01:51PM 22.7619 -82.1811 216° Southwest  Level FlightAware Approximate
01:52PM 22.6695 -82.2548 216° Southwest  Level FlightAware Approximate
01:53PM 22.5770 -82.3283 216° Southwest  Level FlightAware Approximate
01:54PM 22.4845 -82.4018 216° Southwest  Level FlightAware Approximate
01:55PM 22.3919 -82.4752 216° Southwest  Level FlightAware Approximate
01:56PM 22.2994 -82.5485 216° Southwest  Level FlightAware Approximate
01:57PM 22.2067 -82.6217 216° Southwest  Level FlightAware Approximate
01:58PM 22.1141 -82.6948 216° Southwest  Level FlightAware Approximate
01:59PM 22.0214 -82.7678 216° Southwest  Level FlightAware Approximate
02:00PM 21.9287 -82.8407 216° Southwest  Level FlightAware Approximate
02:01PM 21.8359 -82.9136 216° Southwest  Level FlightAware Approximate
02:02PM 21.7432 -82.9863 216° Southwest  Level FlightAware Approximate
02:03PM 21.6503 -83.0589 216° Southwest  Level FlightAware Approximate
02:04PM 21.5575 -83.1314 216° Southwest  Level FlightAware Approximate
02:05PM 21.4646 -83.2039 216° Southwest  Level FlightAware Approximate
02:06PM 21.3717 -83.2762 216° Southwest  Level FlightAware Approximate
02:07PM 21.2788 -83.3485 216° Southwest  Level FlightAware Approximate
02:08PM 21.1858 -83.4206 216° Southwest  Level FlightAware Approximate
02:09PM 21.0928 -83.4927 216° Southwest  Level FlightAware Approximate
02:10PM 20.9998 -83.5647 216° Southwest  Level FlightAware Approximate
02:11PM 20.9067 -83.6366 216° Southwest  Level FlightAware Approximate
02:12PM 20.8136 -83.7084 216° Southwest  Level FlightAware Approximate
02:13PM 20.7205 -83.7801 216° Southwest  Level FlightAware Approximate
02:14PM 20.6274 -83.8518 216° Southwest  Level FlightAware Approximate
02:15PM 20.5342 -83.9233 196° South  Level FlightAware Approximate
02:16PM 20.4252 -83.9567 216° Southwest  Level FlightAware Approximate
02:17PM 20.3326 -84.0290 216° Southwest  Level FlightAware Approximate
02:18PM 20.2400 -84.1013 216° Southwest  Level FlightAware Approximate
02:19PM 20.1474 -84.1734 216° Southwest  Level FlightAware Approximate
02:20PM 20.0547 -84.2455 216° Southwest  Level FlightAware Approximate
02:21PM 19.9620 -84.3175 218° Southwest  Level FlightAware Approximate
02:22PM 19.8713 -84.3922 218° Southwest  Level FlightAware Approximate
02:23PM 19.7806 -84.4669 218° Southwest  Level FlightAware Approximate
02:24PM 19.6898 -84.5414 218° Southwest  Level FlightAware Approximate
02:25PM 19.5989 -84.6159 218° Southwest  Level FlightAware Approximate
02:26PM 19.5081 -84.6903 218° Southwest  Level FlightAware Approximate
02:27PM 19.4172 -84.7646 218° Southwest  Level FlightAware Approximate
02:28PM 19.3263 -84.8388 218° Southwest  Level FlightAware Approximate
02:29PM 19.2354 -84.9129 218° Southwest  Level FlightAware Approximate
02:30PM 19.1444 -84.9870 218° Southwest  Level FlightAware Approximate
02:31PM 19.0534 -85.0610 218° Southwest  Level FlightAware Approximate
02:32PM 18.9624 -85.1349 217° Southwest  Level FlightAware Approximate
02:33PM 18.8713 -85.2087 217° Southwest  Level FlightAware Approximate
02:34PM 18.7802 -85.2824 217° Southwest  Level FlightAware Approximate
02:35PM 18.6891 -85.3560 217° Southwest  Level FlightAware Approximate
02:36PM 18.5979 -85.4296 217° Southwest  Level FlightAware Approximate
02:37PM 18.5068 -85.5031 217° Southwest  Level FlightAware Approximate
02:38PM 18.4156 -85.5765 185° South  Level FlightAware Approximate
02:39PM 18.3073 -85.5863 224° Southwest  Level FlightAware Approximate
02:40PM 18.2249 -85.6704 224° Southwest  Level FlightAware Approximate
02:41PM 18.1425 -85.7544 224° Southwest  Level FlightAware Approximate
02:42PM 18.0600 -85.8384 224° Southwest  Level FlightAware Approximate
02:43PM 17.9775 -85.9222 224° Southwest  Level FlightAware Approximate
02:44PM 17.8950 -86.0060 224° Southwest  Level FlightAware Approximate
02:45PM 17.8124 -86.0898 224° Southwest  Level FlightAware Approximate
02:46PM 17.7298 -86.1734 224° Southwest  Level FlightAware Approximate
02:47PM 17.6472 -86.2570 224° Southwest  Level FlightAware Approximate
02:48PM 17.5645 -86.3404 224° Southwest  Level FlightAware Approximate
02:49PM 17.4820 -86.4241 224° Southwest  Level FlightAware Approximate
02:50PM 17.3996 -86.5078 234° Southwest  Level FlightAware Approximate
02:51PM 17.3328 -86.6055 234° Southwest  Level FlightAware Approximate
02:52PM 17.2659 -86.7032 234° Southwest  Level FlightAware Approximate
02:53PM 17.1990 -86.8008 234° Southwest  Level FlightAware Approximate
02:54PM 17.1320 -86.8984 234° Southwest  Level FlightAware Approximate
02:55PM 17.0651 -86.9958 234° Southwest  Level FlightAware Approximate
02:56PM 16.9980 -87.0932 234° Southwest  Level FlightAware Approximate
02:57PM 16.9309 -87.1906 234° Southwest  Level FlightAware Approximate
02:58PM 16.8638 -87.2878 234° Southwest  Level FlightAware Approximate
02:59PM 16.7966 -87.3850 234° Southwest  Level FlightAware Approximate
03:00PM 16.7294 -87.4821 234° Southwest  Level FlightAware Approximate
03:01PM 16.6621 -87.5792 234° Southwest  Level FlightAware Approximate
03:02PM 16.5948 -87.6762 234° Southwest  Level FlightAware Approximate
03:03PM 16.5274 -87.7731 234° Southwest  Level FlightAware Approximate
03:04PM 16.4600 -87.8699 234° Southwest  Level FlightAware Approximate
03:05PM 16.3926 -87.9667 234° Southwest  Level FlightAware Approximate
03:06PM 16.3251 -88.0634 234° Southwest  Level FlightAware Approximate
03:07PM 16.2575 -88.1601 234° Southwest  Level FlightAware Approximate
03:08PM 16.1899 -88.2567 234° Southwest  Level FlightAware Approximate
03:09PM 16.1223 -88.3532 234° Southwest  Level FlightAware Approximate
03:10PM 16.0546 -88.4496 234° Southwest  Level FlightAware Approximate
03:11PM 15.9869 -88.5460 234° Southwest  Level FlightAware Approximate
03:12PM 15.9192 -88.6423 234° Southwest  Level FlightAware Approximate
03:13PM 15.8514 -88.7386 234° Southwest  Level FlightAware Approximate
03:14PM 15.7835 -88.8348 234° Southwest  Level FlightAware Approximate
03:15PM 15.7156 -88.9309 234° Southwest  Level FlightAware Approximate
03:16PM 15.6477 -89.0270 234° Southwest  Level FlightAware Approximate
03:17PM 15.5797 -89.1230 234° Southwest  Level FlightAware Approximate
03:18PM 15.5117 -89.2189 234° Southwest  Level FlightAware Approximate
03:19PM 15.4437 -89.3148 234° Southwest  Level FlightAware Approximate
03:20PM 15.3756 -89.4106 234° Southwest  Level FlightAware Approximate
03:21PM 15.3074 -89.5063 234° Southwest  Level FlightAware Approximate
03:22PM 15.2393 -89.6020 234° Southwest  Level FlightAware Approximate
03:23PM 15.1710 -89.6976 234° Southwest  Level FlightAware Approximate
03:24PM 15.1028 -89.7932 233° Southwest  Level FlightAware Approximate
03:25PM 15.0345 -89.8887 233° Southwest  Level FlightAware Approximate
03:26PM 14.9662 -89.9841 233° Southwest  Level FlightAware Approximate
03:27PM 14.8978 -90.0795 233° Southwest  Level FlightAware Approximate
03:28PM 14.8294 -90.1748 233° Southwest  Level FlightAware Approximate
03:29PM 14.7609 -90.2701 195° South  Level FlightAware Approximate
03:30PM 14.6500 -90.3001 255° West  Level FlightAware Approximate
03:31PM 14.6213 -90.4134 245° Southwest  Level FlightAware Approximate
03:32PM 14.5756 -90.5167 306° West  Level FlightAware Approximate
03:33PM 14.6437 -90.6121 130° Southeast  Level Estimated
03:34PM 14.5667 -90.5167 130° Southeast  Level FlightAware Approximate